The Bluffs, Vermont
Current Conditions -  °F | °C
As of 9:55 PM on Wednesday 26 Nov 2014 (Local Time) from KEFK Reporting Station
Light Snow Light Snow  
Wind Chill: 17°   Ceiling: 700
Heat Index: 28°   Visibility: 2mi
Dew Point: 26°   Wind: 12mph
Humidity: 94%   Direction: 350°N
Pressure: 29.95"   Gusts: NA
Location:  44.9201°N, 72.2004°W
Report Text: KEFK 270255Z AUTO 35010KT 2SM -SN OVC007 M02/M03 A2995 RMK AO2 T10251033
Loading
Personal Weather Stations






























Interactive Weather Map New forecast layout! Learn more

10-Day Weather Forecast

Advertisements
Track Severe Weather on mobile